createdAt,value
2023-03-07T00:01:57.622Z,20.03
2023-03-07T00:04:24.276Z,24.23
2023-03-07T00:06:50.949Z,21.80
2023-03-07T00:09:17.615Z,19.20
2023-03-07T00:11:44.302Z,18.07
2023-03-07T00:14:11.169Z,21.40
2023-03-07T00:16:37.811Z,21.17
2023-03-07T00:19:05.186Z,20.13
2023-03-07T00:21:32.326Z,25.10
2023-03-07T00:23:59.265Z,24.07
2023-03-07T00:26:26.916Z,19.03
2023-03-07T00:28:55.598Z,19.97
2023-03-07T00:31:23.968Z,19.40
2023-03-07T00:33:50.726Z,19.10
2023-03-07T00:36:22.693Z,20.67
2023-03-07T00:38:50.325Z,21.83
2023-03-07T00:41:21.281Z,21.53
2023-03-07T00:43:48.396Z,26.60
2023-03-07T00:46:16.411Z,18.83
2023-03-07T00:48:43.386Z,20.80
2023-03-07T00:51:12.851Z,21.57
2023-03-07T00:53:40.439Z,25.23
2023-03-07T00:56:16.077Z,21.70
2023-03-07T00:58:44.732Z,21.83
2023-03-07T01:01:14.203Z,20.03
2023-03-07T01:03:41.353Z,20.23
2023-03-07T01:06:13.722Z,21.47
2023-03-07T01:08:40.694Z,21.43
2023-03-07T01:11:08.465Z,20.90
2023-03-07T01:13:36.125Z,21.47
2023-03-07T01:16:13.847Z,18.87
2023-03-07T01:18:42.812Z,22.30
2023-03-07T01:21:22.048Z,24.33
2023-03-07T01:23:50.155Z,19.17
2023-03-07T01:26:20.779Z,22.53
2023-03-07T01:28:47.932Z,19.90
2023-03-07T01:31:14.706Z,17.93
2023-03-07T01:33:41.552Z,20.40
2023-03-07T01:36:25.334Z,19.43
2023-03-07T01:38:55.422Z,18.87
2023-03-07T01:41:22.968Z,19.50
2023-03-07T01:43:51.679Z,20.17
2023-03-07T01:46:46.576Z,17.03
2023-03-07T01:49:29.518Z,16.23
2023-03-07T01:52:31.370Z,15.67
2023-03-07T01:55:08.464Z,18.77
2023-03-07T01:57:38.310Z,17.57
2023-03-07T02:00:14.167Z,14.97
2023-03-07T02:02:44.733Z,15.43
2023-03-07T02:05:29.100Z,15.87
2023-03-07T02:07:58.902Z,15.93
2023-03-07T02:10:30.593Z,15.47
2023-03-07T02:12:57.676Z,16.10
2023-03-07T02:15:24.622Z,15.97
2023-03-07T02:17:51.870Z,14.43
2023-03-07T02:20:24.249Z,14.47
2023-03-07T02:22:51.276Z,15.30
2023-03-07T02:25:20.195Z,14.23
2023-03-07T02:27:48.734Z,14.30
2023-03-07T02:30:15.667Z,13.63
2023-03-07T02:32:42.593Z,14.07
2023-03-07T02:35:20.426Z,14.03
2023-03-07T02:37:53.861Z,17.97
2023-03-07T02:40:24.960Z,15.60
2023-03-07T02:42:54.657Z,14.77
2023-03-07T02:45:21.673Z,15.37
2023-03-07T02:47:48.612Z,15.37
2023-03-07T02:50:17.801Z,16.23
2023-03-07T02:52:49.568Z,16.47
2023-03-07T02:55:16.745Z,16.37
2023-03-07T02:57:49.389Z,16.93
2023-03-07T03:00:17.378Z,15.47
2023-03-07T03:02:44.445Z,18.43
2023-03-07T03:05:12.584Z,16.97
2023-03-07T03:07:39.284Z,18.50
2023-03-07T03:10:06.553Z,18.87
2023-03-07T03:12:33.886Z,16.87
2023-03-07T03:15:00.818Z,16.73
2023-03-07T03:17:27.544Z,16.90
2023-03-07T03:19:54.283Z,16.83
2023-03-07T03:22:21.005Z,18.47
2023-03-07T03:24:50.157Z,17.40
2023-03-07T03:27:18.712Z,14.90
2023-03-07T03:29:48.474Z,15.30
2023-03-07T03:32:16.190Z,16.23
2023-03-07T03:34:44.518Z,15.77
2023-03-07T03:37:11.430Z,18.83
2023-03-07T03:39:38.479Z,16.30
2023-03-07T03:42:06.190Z,15.07
2023-03-07T03:44:33.262Z,15.20
2023-03-07T03:47:00.236Z,16.83
2023-03-07T03:49:27.373Z,17.20
2023-03-07T03:51:54.992Z,16.83
2023-03-07T03:54:21.812Z,16.53
2023-03-07T03:56:48.555Z,16.60
2023-03-07T03:59:15.228Z,17.57
2023-03-07T04:01:42.143Z,17.13
2023-03-07T04:04:09.374Z,17.40
2023-03-07T04:06:37.304Z,18.10
2023-03-07T04:09:05.328Z,20.73
2023-03-07T04:11:32.710Z,19.43
2023-03-07T04:13:59.522Z,18.43
2023-03-07T04:16:26.253Z,19.23
2023-03-07T04:18:53.250Z,16.53
2023-03-07T04:21:21.456Z,19.23
2023-03-07T04:23:50.385Z,16.23
2023-03-07T04:26:17.386Z,17.63
2023-03-07T04:28:49.058Z,18.37
2023-03-07T04:31:23.097Z,17.70
2023-03-07T04:33:50.887Z,17.37
2023-03-07T04:36:18.435Z,17.60
2023-03-07T04:38:46.532Z,17.67
2023-03-07T04:41:18.977Z,15.90
2023-03-07T04:43:47.848Z,19.97
2023-03-07T04:46:16.479Z,16.70
2023-03-07T04:48:44.017Z,14.20
2023-03-07T04:51:11.050Z,19.57
2023-03-07T04:53:37.811Z,14.77
2023-03-07T04:56:06.920Z,15.23
2023-03-07T04:58:34.645Z,14.67
2023-03-07T05:01:03.854Z,17.07
2023-03-07T05:03:31.037Z,19.53
2023-03-07T05:06:03.098Z,16.47
2023-03-07T05:08:30.496Z,16.13
2023-03-07T05:10:57.735Z,14.63
2023-03-07T05:13:25.605Z,15.70
2023-03-07T05:15:53.968Z,15.30
2023-03-07T05:18:22.460Z,18.35
2023-03-07T05:20:50.301Z,13.87
2023-03-07T05:23:18.369Z,14.93
2023-03-07T05:25:47.588Z,16.10
2023-03-07T05:28:14.729Z,12.73
2023-03-07T05:30:41.410Z,14.27
2023-03-07T05:33:08.156Z,13.87
2023-03-07T05:35:39.526Z,11.73
2023-03-07T05:38:08.110Z,14.17
2023-03-07T05:40:35.495Z,12.83
2023-03-07T05:43:02.668Z,14.57
2023-03-07T05:45:29.482Z,14.30
2023-03-07T05:47:56.271Z,16.87
2023-03-07T05:50:23.852Z,14.97
2023-03-07T05:52:50.759Z,12.77
2023-03-07T05:55:18.409Z,16.40
2023-03-07T05:57:45.088Z,13.47
2023-03-07T06:00:12.492Z,14.70
2023-03-07T06:02:47.574Z,15.93
2023-03-07T06:05:15.927Z,15.93
2023-03-07T06:07:42.629Z,14.70
2023-03-07T06:10:11.057Z,14.43
2023-03-07T06:12:37.892Z,14.33
2023-03-07T06:15:05.407Z,13.73
2023-03-07T06:17:34.327Z,13.90
2023-03-07T06:20:01.096Z,14.97
2023-03-07T06:22:27.809Z,14.60
2023-03-07T06:24:55.056Z,16.53
2023-03-07T06:27:21.828Z,10.80
2023-03-07T06:29:48.592Z,16.80
2023-03-07T06:32:15.409Z,13.50
2023-03-07T06:34:42.355Z,12.03
2023-03-07T06:37:09.775Z,15.40
2023-03-07T06:39:36.678Z,12.63
2023-03-07T06:42:05.325Z,11.20
2023-03-07T06:44:32.264Z,11.37
2023-03-07T06:46:59.070Z,11.70
2023-03-07T06:49:25.945Z,14.93
2023-03-07T06:51:52.739Z,18.70
2023-03-07T06:54:20.171Z,19.87
2023-03-07T06:56:47.274Z,18.37
2023-03-07T06:59:19.520Z,12.37
2023-03-07T07:01:46.421Z,12.40
2023-03-07T07:04:13.308Z,11.93
2023-03-07T07:06:41.989Z,14.77
2023-03-07T07:09:11.969Z,13.20
2023-03-07T07:11:38.731Z,13.90
2023-03-07T07:14:08.806Z,10.73
2023-03-07T07:16:37.343Z,11.87
2023-03-07T07:19:05.135Z,12.30
2023-03-07T07:21:32.120Z,12.03
2023-03-07T07:23:59.075Z,12.00
2023-03-07T07:26:26.477Z,9.97
2023-03-07T07:28:53.640Z,13.37
2023-03-07T07:31:20.383Z,12.13
2023-03-07T07:33:47.053Z,14.43
2023-03-07T07:36:15.703Z,16.53
2023-03-07T07:38:42.823Z,11.43
2023-03-07T07:41:09.841Z,12.80
2023-03-07T07:43:36.652Z,12.17
2023-03-07T07:46:12.282Z,12.50
2023-03-07T07:48:39.286Z,11.63
2023-03-07T07:51:06.487Z,11.20
2023-03-07T07:53:36.044Z,14.23
2023-03-07T07:56:02.974Z,10.53
2023-03-07T07:58:29.728Z,12.10
2023-03-07T08:00:56.628Z,11.47
2023-03-07T08:03:23.402Z,7.73
2023-03-07T08:05:51.006Z,10.67
2023-03-07T08:08:19.512Z,11.50
2023-03-07T08:10:47.125Z,11.37
2023-03-07T08:13:15.688Z,12.73
2023-03-07T08:15:43.258Z,11.23
2023-03-07T08:18:10.841Z,11.97
2023-03-07T08:20:38.318Z,10.00
2023-03-07T08:23:05.045Z,9.67
2023-03-07T08:25:32.081Z,11.87
2023-03-07T08:27:59.185Z,8.07
2023-03-07T08:30:28.217Z,10.30
2023-03-07T08:32:56.487Z,9.70
2023-03-07T08:35:24.643Z,10.63
2023-03-07T08:37:55.698Z,9.10
2023-03-07T08:40:24.115Z,11.73
2023-03-07T08:42:50.969Z,10.07
2023-03-07T08:45:17.794Z,9.17
2023-03-07T08:47:44.464Z,10.63
2023-03-07T08:50:11.770Z,10.67
2023-03-07T08:52:38.436Z,8.33
2023-03-07T08:55:05.519Z,7.70
2023-03-07T08:57:33.168Z,7.70
2023-03-07T08:59:59.862Z,9.00
2023-03-07T09:02:26.557Z,12.87
2023-03-07T09:04:53.654Z,9.37
2023-03-07T09:07:20.388Z,8.27
2023-03-07T09:09:47.075Z,10.03
2023-03-07T09:12:14.877Z,8.40
2023-03-07T09:14:41.795Z,8.13
2023-03-07T09:17:09.568Z,10.30
2023-03-07T09:19:36.266Z,10.00
2023-03-07T09:22:02.957Z,8.80
2023-03-07T09:24:30.259Z,16.97
2023-03-07T09:26:57.019Z,12.97
2023-03-07T09:29:24.781Z,8.67
2023-03-07T09:31:51.563Z,10.53
2023-03-07T09:34:18.250Z,11.17
2023-03-07T09:36:44.976Z,9.90
2023-03-07T09:39:14.572Z,9.80
2023-03-07T09:42:12.862Z,8.33
2023-03-07T09:44:54.691Z,7.67
2023-03-07T09:48:09.902Z,9.20
2023-03-07T09:50:54.421Z,8.33
2023-03-07T09:54:03.001Z,8.37
2023-03-07T09:56:46.168Z,8.07
2023-03-07T09:59:24.339Z,9.50
2023-03-07T10:01:59.948Z,9.10
2023-03-07T10:04:37.238Z,9.07
2023-03-07T10:07:05.086Z,7.73
2023-03-07T10:09:31.813Z,8.50
2023-03-07T10:11:59.074Z,10.23
2023-03-07T10:14:58.046Z,24.07
2023-03-07T10:17:35.182Z,8.63
2023-03-07T10:20:40.234Z,9.73
2023-03-07T10:23:25.896Z,10.20
2023-03-07T10:26:01.885Z,7.63
2023-03-07T10:28:32.510Z,11.87
2023-03-07T10:31:21.001Z,16.83
2023-03-07T10:33:49.290Z,13.27
2023-03-07T10:36:21.105Z,8.53
2023-03-07T10:39:01.652Z,8.13
2023-03-07T10:41:28.881Z,9.83
2023-03-07T10:43:56.618Z,8.53
2023-03-07T10:46:30.864Z,10.07
2023-03-07T10:49:08.770Z,8.90
2023-03-07T10:51:42.660Z,9.97
2023-03-07T10:54:16.972Z,10.50
2023-03-07T10:57:08.506Z,8.77
2023-03-07T10:59:37.337Z,12.10
2023-03-07T11:02:36.788Z,10.77
2023-03-07T11:05:23.875Z,10.80
2023-03-07T11:07:50.519Z,12.30
2023-03-07T11:10:34.846Z,11.97
2023-03-07T11:13:22.028Z,10.87
2023-03-07T11:15:49.175Z,9.60
2023-03-07T11:18:37.988Z,10.50
2023-03-07T11:21:05.230Z,12.10
2023-03-07T11:23:32.712Z,11.63
2023-03-07T11:26:17.592Z,14.13
2023-03-07T11:28:44.869Z,10.63
2023-03-07T11:31:23.531Z,9.67
2023-03-07T11:34:15.780Z,10.53
2023-03-07T11:36:48.537Z,11.57
2023-03-07T11:39:32.226Z,10.27
2023-03-07T11:42:38.418Z,11.83
2023-03-07T11:45:38.215Z,8.73
2023-03-07T11:48:31.439Z,10.17
2023-03-07T11:50:59.601Z,10.07
2023-03-07T11:53:47.150Z,11.83
2023-03-07T11:56:20.024Z,11.77
2023-03-07T11:59:19.166Z,15.13
2023-03-07T12:01:59.117Z,11.30
2023-03-07T12:04:28.751Z,13.40
2023-03-07T12:07:20.371Z,12.33
2023-03-07T12:10:02.664Z,10.63
2023-03-07T12:12:51.299Z,10.87
2023-03-07T12:15:17.971Z,11.93
2023-03-07T12:18:21.838Z,12.57
2023-03-07T12:20:57.358Z,11.27
2023-03-07T12:23:42.170Z,11.73
2023-03-07T12:26:45.047Z,9.20
2023-03-07T12:29:39.553Z,10.40
2023-03-07T12:32:14.352Z,10.47
2023-03-07T12:34:47.639Z,12.13
2023-03-07T12:37:21.812Z,12.33
2023-03-07T12:39:58.354Z,10.90
2023-03-07T12:42:49.246Z,8.10
2023-03-07T12:45:22.736Z,9.87
2023-03-07T12:48:08.417Z,9.87
2023-03-07T12:50:41.275Z,17.73
2023-03-07T12:53:36.106Z,14.70
2023-03-07T12:56:12.509Z,10.60
2023-03-07T12:58:48.159Z,9.17
2023-03-07T13:01:23.062Z,10.00
2023-03-07T13:03:56.937Z,9.57
2023-03-07T13:06:24.977Z,9.20
2023-03-07T13:08:55.085Z,11.70
2023-03-07T13:11:31.097Z,11.37
2023-03-07T13:14:04.425Z,9.23
2023-03-07T13:16:44.587Z,13.03
2023-03-07T13:19:36.372Z,11.63
2023-03-07T13:22:24.068Z,9.50
2023-03-07T13:24:54.857Z,10.63
2023-03-07T13:27:41.761Z,12.37
2023-03-07T13:30:08.429Z,11.70
2023-03-07T13:32:56.379Z,10.00
2023-03-07T13:35:29.212Z,9.13
2023-03-07T13:38:14.764Z,8.67
2023-03-07T13:40:44.484Z,9.70
2023-03-07T13:43:24.183Z,10.60
2023-03-07T13:45:57.167Z,10.53
2023-03-07T13:48:29.953Z,10.63
2023-03-07T13:51:02.356Z,11.33
2023-03-07T13:53:50.481Z,8.20
2023-03-07T13:56:17.292Z,9.90
2023-03-07T13:58:52.578Z,9.37
2023-03-07T14:01:22.457Z,9.23
2023-03-07T14:03:54.243Z,10.13
2023-03-07T14:06:27.930Z,7.93
2023-03-07T14:08:55.347Z,10.33
2023-03-07T14:11:40.791Z,9.67
2023-03-07T14:14:27.503Z,12.30
2023-03-07T14:17:03.064Z,8.47
2023-03-07T14:19:38.588Z,8.47
2023-03-07T14:22:10.606Z,6.97
2023-03-07T14:24:53.827Z,10.33
2023-03-07T14:27:20.499Z,11.70
2023-03-07T14:29:52.292Z,11.33
2023-03-07T14:32:23.464Z,10.90
2023-03-07T14:34:50.392Z,9.97
2023-03-07T14:37:22.218Z,7.80
2023-03-07T14:40:01.599Z,9.23
2023-03-07T14:42:52.705Z,10.00
2023-03-07T14:45:37.308Z,10.20
2023-03-07T14:48:09.802Z,12.17
2023-03-07T14:50:39.910Z,10.03
2023-03-07T14:53:21.225Z,8.63
2023-03-07T14:55:51.167Z,9.47
2023-03-07T14:58:20.932Z,14.07
2023-03-07T15:01:11.562Z,9.90
2023-03-07T15:03:52.736Z,12.20
2023-03-07T15:06:24.551Z,9.67
2023-03-07T15:08:52.358Z,10.13
2023-03-07T15:11:40.398Z,9.60
2023-03-07T15:14:19.979Z,10.57
2023-03-07T15:16:50.989Z,11.47
2023-03-07T15:19:23.840Z,11.30
2023-03-07T15:21:57.131Z,13.10
2023-03-07T15:24:30.724Z,10.23
2023-03-07T15:26:59.355Z,29.17
2023-03-07T15:29:31.171Z,16.53
2023-03-07T15:32:04.139Z,12.50
2023-03-07T15:34:36.000Z,14.17
2023-03-07T15:37:26.592Z,13.90
2023-03-07T15:39:57.980Z,11.03
2023-03-07T15:42:24.810Z,11.20
2023-03-07T15:44:56.727Z,11.50
2023-03-07T15:47:24.995Z,10.33
2023-03-07T15:49:54.853Z,10.17
2023-03-07T15:52:27.401Z,8.67
2023-03-07T15:54:56.089Z,9.60
2023-03-07T15:57:26.780Z,9.23
2023-03-07T16:00:15.690Z,9.37
2023-03-07T16:02:45.804Z,7.87
2023-03-07T16:05:24.261Z,10.47
2023-03-07T16:07:52.915Z,9.63
2023-03-07T16:10:20.144Z,8.43
2023-03-07T16:12:48.196Z,7.70
2023-03-07T16:15:20.526Z,7.87
2023-03-07T16:17:52.973Z,8.03
2023-03-07T16:20:23.559Z,10.77
2023-03-07T16:22:50.272Z,9.57
2023-03-07T16:25:17.289Z,9.53
2023-03-07T16:27:50.217Z,13.27
2023-03-07T16:30:20.843Z,8.03
2023-03-07T16:32:47.735Z,8.53
2023-03-07T16:35:24.373Z,9.23
2023-03-07T16:37:51.437Z,8.63
2023-03-07T16:40:18.255Z,8.80
2023-03-07T16:42:47.748Z,10.10
2023-03-07T16:45:26.980Z,7.67
2023-03-07T16:47:56.681Z,7.80
2023-03-07T16:50:33.325Z,7.20
2023-03-07T16:53:00.410Z,8.57
2023-03-07T16:55:27.269Z,10.37
2023-03-07T16:57:56.467Z,9.73
2023-03-07T17:00:25.544Z,6.23
2023-03-07T17:02:54.244Z,9.73
2023-03-07T17:05:25.507Z,7.47
2023-03-07T17:07:57.042Z,9.80
2023-03-07T17:10:26.455Z,8.10
2023-03-07T17:12:54.950Z,7.93
2023-03-07T17:15:26.300Z,9.70
2023-03-07T17:17:53.174Z,9.70
2023-03-07T17:20:20.359Z,7.87
2023-03-07T17:22:47.093Z,8.63
2023-03-07T17:25:13.788Z,10.30
2023-03-07T17:28:00.362Z,6.57
2023-03-07T17:30:29.643Z,10.00
2023-03-07T17:32:57.162Z,8.97
2023-03-07T17:35:24.715Z,11.27
2023-03-07T17:37:52.984Z,6.77
2023-03-07T17:40:21.221Z,8.07
2023-03-07T17:42:50.483Z,7.70
2023-03-07T17:45:17.940Z,7.27
2023-03-07T17:47:44.636Z,8.30
2023-03-07T17:50:12.138Z,8.30
2023-03-07T17:52:39.015Z,8.43
2023-03-07T17:55:09.506Z,8.80
2023-03-07T17:57:36.453Z,7.30
2023-03-07T18:00:06.799Z,8.50
2023-03-07T18:02:39.568Z,8.77
2023-03-07T18:05:07.214Z,7.83
2023-03-07T18:07:34.213Z,14.97
2023-03-07T18:10:07.896Z,9.07
2023-03-07T18:12:41.554Z,9.60
2023-03-07T18:15:13.306Z,7.57
2023-03-07T18:17:47.818Z,9.50
2023-03-07T18:20:15.589Z,9.63
2023-03-07T18:22:42.792Z,9.23
2023-03-07T18:25:12.900Z,9.27
2023-03-07T18:27:39.714Z,8.40
2023-03-07T18:30:06.998Z,8.73
2023-03-07T18:32:34.206Z,11.03
2023-03-07T18:35:00.998Z,8.70
2023-03-07T18:37:28.435Z,8.77
2023-03-07T18:39:55.373Z,11.37
2023-03-07T18:42:22.093Z,7.10
2023-03-07T18:44:48.747Z,8.00
2023-03-07T18:47:15.432Z,7.70
2023-03-07T18:49:42.225Z,8.83
2023-03-07T18:52:08.890Z,9.27
2023-03-07T18:54:35.620Z,9.80
2023-03-07T18:57:02.246Z,8.50
2023-03-07T18:59:28.895Z,9.60
2023-03-07T19:01:55.654Z,9.47
2023-03-07T19:04:22.576Z,7.63
2023-03-07T19:06:49.256Z,8.33
2023-03-07T19:09:18.781Z,10.37
2023-03-07T19:11:46.001Z,9.10
2023-03-07T19:14:12.720Z,9.10
2023-03-07T19:16:39.840Z,8.87
2023-03-07T19:19:06.574Z,9.33
2023-03-07T19:21:33.340Z,6.97
2023-03-07T19:24:01.639Z,9.70
2023-03-07T19:26:28.556Z,7.83
2023-03-07T19:28:56.414Z,11.53
2023-03-07T19:31:29.556Z,8.53
2023-03-07T19:33:56.503Z,13.30
2023-03-07T19:36:27.300Z,9.80
2023-03-07T19:38:57.008Z,8.83
2023-03-07T19:41:25.222Z,8.67
2023-03-07T19:43:52.485Z,8.67
2023-03-07T19:46:20.595Z,9.83
2023-03-07T19:48:47.790Z,8.83
2023-03-07T19:51:18.492Z,9.07
2023-03-07T19:53:46.256Z,10.77
2023-03-07T19:56:22.247Z,10.43
2023-03-07T19:58:49.208Z,10.97
2023-03-07T20:01:18.964Z,10.20
2023-03-07T20:03:46.765Z,11.87
2023-03-07T20:06:27.914Z,10.10
2023-03-07T20:08:55.517Z,9.47
2023-03-07T20:11:28.178Z,8.50
2023-03-07T20:13:56.979Z,12.17
2023-03-07T20:16:27.070Z,10.73
2023-03-07T20:18:53.927Z,10.70
2023-03-07T20:21:25.167Z,9.23
2023-03-07T20:23:53.828Z,10.20
2023-03-07T20:26:23.341Z,10.07
2023-03-07T20:28:51.688Z,10.07
2023-03-07T20:31:18.614Z,8.60
2023-03-07T20:33:46.413Z,10.63
2023-03-07T20:36:20.586Z,9.10
2023-03-07T20:38:55.900Z,9.50
2023-03-07T20:41:24.816Z,10.43
2023-03-07T20:43:53.376Z,10.27
2023-03-07T20:46:21.718Z,10.13
2023-03-07T20:48:49.220Z,10.40
2023-03-07T20:51:21.328Z,11.80
2023-03-07T20:53:53.004Z,9.43
2023-03-07T20:56:20.894Z,9.47
2023-03-07T20:58:47.639Z,11.43
2023-03-07T21:01:18.991Z,8.90
2023-03-07T21:03:48.033Z,7.67
2023-03-07T21:06:15.889Z,8.67
2023-03-07T21:08:42.969Z,13.37
2023-03-07T21:11:10.904Z,11.30
2023-03-07T21:13:40.033Z,8.70
2023-03-07T21:16:12.601Z,10.10
2023-03-07T21:18:39.873Z,8.27
2023-03-07T21:21:12.906Z,9.40
2023-03-07T21:23:40.297Z,10.30
2023-03-07T21:26:09.841Z,7.77
2023-03-07T21:28:37.185Z,9.33
2023-03-07T21:31:06.617Z,9.80
2023-03-07T21:33:34.796Z,10.00
2023-03-07T21:36:02.821Z,8.37
2023-03-07T21:38:29.698Z,10.20
2023-03-07T21:40:57.037Z,7.90
2023-03-07T21:43:23.904Z,10.37
2023-03-07T21:45:50.870Z,8.70
2023-03-07T21:48:19.191Z,9.47
2023-03-07T21:50:51.689Z,9.47
2023-03-07T21:53:19.093Z,10.97
2023-03-07T21:55:53.453Z,8.53
2023-03-07T21:58:24.382Z,8.83
2023-03-07T22:00:51.673Z,8.43
2023-03-07T22:03:18.880Z,9.60
2023-03-07T22:05:45.959Z,9.40
2023-03-07T22:08:12.926Z,8.10
2023-03-07T22:10:39.671Z,9.50
2023-03-07T22:13:06.957Z,11.13
2023-03-07T22:15:33.962Z,9.67
2023-03-07T22:18:00.598Z,12.93
2023-03-07T22:20:27.352Z,7.33
2023-03-07T22:22:54.073Z,10.57
2023-03-07T22:25:20.807Z,10.50
2023-03-07T22:27:47.454Z,11.10
2023-03-07T22:30:14.547Z,10.40
2023-03-07T22:32:44.701Z,9.47
2023-03-07T22:35:11.423Z,10.20
2023-03-07T22:37:38.256Z,9.77
2023-03-07T22:40:05.783Z,11.07
2023-03-07T22:42:32.455Z,7.70
2023-03-07T22:44:59.076Z,11.57
2023-03-07T22:47:25.815Z,8.37
2023-03-07T22:49:52.425Z,9.70
2023-03-07T22:52:19.070Z,11.87
2023-03-07T22:54:45.728Z,7.80
2023-03-07T22:57:12.493Z,8.60
2023-03-07T22:59:39.144Z,10.07
2023-03-07T23:02:05.963Z,9.27
2023-03-07T23:04:32.715Z,8.17
2023-03-07T23:06:59.379Z,8.10
2023-03-07T23:09:26.026Z,10.23
2023-03-07T23:11:52.685Z,9.23
2023-03-07T23:14:19.367Z,8.37
2023-03-07T23:16:46.195Z,9.17
2023-03-07T23:19:12.845Z,9.47
2023-03-07T23:21:39.541Z,9.20
2023-03-07T23:24:06.373Z,10.53
2023-03-07T23:26:36.881Z,10.33
2023-03-07T23:29:05.633Z,11.70
2023-03-07T23:31:35.726Z,10.47
2023-03-07T23:34:06.485Z,8.00
2023-03-07T23:36:33.692Z,8.63
2023-03-07T23:39:00.551Z,9.23
2023-03-07T23:41:27.791Z,8.20
2023-03-07T23:43:59.533Z,9.43
2023-03-07T23:46:27.409Z,9.60
2023-03-07T23:48:54.783Z,8.07
2023-03-07T23:51:22.157Z,10.67
2023-03-07T23:53:48.992Z,10.93
2023-03-07T23:56:16.171Z,11.63
2023-03-07T23:58:43.912Z,9.83
